Time;durP1;ratioP1;P1;durP2;ratioP2;P2;SDS_P1;SDS_P2;PMS_P1;PMS_P2;Temp;Humidity;BMP_temperature;BMP_pressure;BME280_temperature;BME280_humidity;BME280_pressure;Samples;Min_cycle;Max_cycle;Signal;HPM_P1;HPM_P2
2023/03/20 00:00:27;;;;;;;7.40;3.92;;;;;;;8.17;100.00;100941.38;6209828;23;20095;-69
2023/03/20 00:02:55;;;;;;;6.45;3.75;;;;;;;8.18;100.00;100943.91;6209252;23;20027;-69
2023/03/20 00:05:23;;;;;;;8.18;4.45;;;;;;;8.07;100.00;100941.38;6209948;23;20024;-69
2023/03/20 00:07:50;;;;;;;9.07;4.07;;;;;;;8.04;100.00;100945.16;6209861;23;20341;-69
2023/03/20 00:10:18;;;;;;;8.80;4.15;;;;;;;8.01;100.00;100945.44;6210164;23;20100;-69
2023/03/20 00:12:47;;;;;;;6.03;3.70;;;;;;;7.94;100.00;100941.63;6209672;23;20020;-69
2023/03/20 00:15:24;;;;;;;7.68;3.80;;;;;;;7.84;100.00;100949.63;6209989;23;20035;-69
2023/03/20 00:17:51;;;;;;;7.47;3.90;;;;;;;7.80;100.00;100952.66;6211222;23;20017;-69
2023/03/20 00:20:18;;;;;;;6.70;3.55;;;;;;;7.79;100.00;100951.81;6212707;23;20021;-69
2023/03/20 00:22:45;;;;;;;7.38;4.13;;;;;;;7.84;100.00;100952.28;6211827;23;20020;-69
2023/03/20 00:25:14;;;;;;;7.07;3.60;;;;;;;7.82;100.00;100942.72;6212049;23;20092;-69
2023/03/20 00:27:42;;;;;;;7.97;3.65;;;;;;;7.77;100.00;100942.25;6211766;23;20469;-69
2023/03/20 00:30:23;;;;;;;4.55;3.25;;;;;;;7.68;100.00;100948.44;6211447;23;20448;-69
2023/03/20 00:32:51;;;;;;;7.80;3.90;;;;;;;7.65;100.00;100942.38;6185247;23;20422;-69
2023/03/20 00:35:29;;;;;;;7.78;3.92;;;;;;;7.61;100.00;100937.44;6212296;23;20017;-69
2023/03/20 00:37:57;;;;;;;9.05;4.20;;;;;;;7.72;100.00;100929.31;6212113;23;20026;-69
2023/03/20 00:40:30;;;;;;;9.60;3.78;;;;;;;7.64;100.00;100940.69;6210474;23;20040;-69
2023/03/20 00:42:59;;;;;;;6.63;3.63;;;;;;;7.59;100.00;100934.91;6211102;23;20020;-70
2023/03/20 00:45:28;;;;;;;8.45;3.67;;;;;;;7.64;100.00;100931.84;6210651;23;20403;-70
2023/03/20 00:47:56;;;;;;;7.32;3.63;;;;;;;7.59;100.00;100937.56;6211197;23;20016;-68
2023/03/20 00:50:25;;;;;;;7.35;3.50;;;;;;;7.60;100.00;100935.72;6210939;23;20369;-70
2023/03/20 00:52:52;;;;;;;9.48;4.00;;;;;;;7.64;100.00;100932.69;6185151;23;20031;-69
2023/03/20 00:55:21;;;;;;;8.18;3.53;;;;;;;7.65;100.00;100928.19;6210815;23;20356;-69
2023/03/20 00:57:49;;;;;;;8.00;4.30;;;;;;;7.63;100.00;100930.97;6211164;23;20035;-69
2023/03/20 01:00:43;;;;;;;11.45;4.35;;;;;;;7.49;100.00;100928.69;6211281;23;20454;-69
2023/03/20 01:03:18;;;;;;;8.45;4.05;;;;;;;7.42;100.00;100928.38;6203461;23;20036;-69
2023/03/20 01:05:45;;;;;;;6.88;3.97;;;;;;;7.46;100.00;100934.28;6210419;23;20040;-70
2023/03/20 01:08:21;;;;;;;8.10;4.18;;;;;;;7.51;100.00;100936.56;6209919;23;20095;-70
2023/03/20 01:10:51;;;;;;;7.05;3.78;;;;;;;7.59;100.00;100929.56;6211478;23;20041;-69
2023/03/20 01:13:27;;;;;;;8.93;4.10;;;;;;;7.51;100.00;100928.56;6210343;23;20489;-69
2023/03/20 01:15:55;;;;;;;9.43;4.57;;;;;;;7.44;100.00;100930.91;6210042;23;20096;-69
2023/03/20 01:18:23;;;;;;;8.43;3.45;;;;;;;7.36;100.00;100934.28;6210558;23;20043;-69
2023/03/20 01:20:51;;;;;;;6.70;4.10;;;;;;;7.42;100.00;100932.88;6210261;23;20025;-69
2023/03/20 01:23:19;;;;;;;10.82;3.88;;;;;;;7.50;100.00;100926.84;6210901;23;20024;-69
2023/03/20 01:25:46;;;;;;;10.70;4.45;;;;;;;7.48;100.00;100935.00;6211274;23;20021;-70
2023/03/20 01:28:22;;;;;;;13.85;4.47;;;;;;;7.49;100.00;100928.69;6210337;23;20338;-70
2023/03/20 01:30:49;;;;;;;7.80;4.30;;;;;;;7.46;100.00;100925.44;6210765;23;20016;-69
2023/03/20 01:33:19;;;;;;;7.20;4.18;;;;;;;7.52;100.00;100927.56;6207861;23;20115;-70
2023/03/20 01:35:47;;;;;;;7.40;4.60;;;;;;;7.54;100.00;100928.28;6209872;23;20100;-69
2023/03/20 01:38:23;;;;;;;7.70;4.40;;;;;;;7.45;100.00;100937.09;6210675;23;20047;-71
2023/03/20 01:41:11;;;;;;;9.70;4.18;;;;;;;7.47;100.00;100945.84;6210912;23;20044;-70
2023/03/20 01:43:38;;;;;;;9.85;4.82;;;;;;;7.53;100.00;100938.09;6209334;23;20455;-69
2023/03/20 01:46:13;;;;;;;7.97;4.28;;;;;;;7.43;100.00;100934.59;6211825;23;20409;-68
2023/03/20 03:16:13;;;;;;;8.65;4.75;;;;;;;7.02;100.00;100952.34;6158386;23;20047;-71
2023/03/20 03:18:41;;;;;;;9.77;4.80;;;;;;;7.01;100.00;100955.97;6207802;23;20029;-72
2023/03/20 03:21:10;;;;;;;8.45;5.20;;;;;;;7.01;100.00;100950.63;6206359;23;20521;-72
2023/03/20 03:23:45;;;;;;;7.20;4.60;;;;;;;7.03;100.00;100953.19;6202313;23;20099;-72
2023/03/20 03:26:20;;;;;;;9.15;5.25;;;;;;;7.06;100.00;100959.09;6208564;23;20048;-72
2023/03/20 03:28:54;;;;;;;8.63;5.07;;;;;;;7.04;100.00;100949.53;6205265;23;20024;-73
2023/03/20 03:31:23;;;;;;;8.18;5.72;;;;;;;6.96;100.00;100952.88;6207117;23;20035;-71
2023/03/20 03:33:52;;;;;;;8.57;4.78;;;;;;;7.00;100.00;100948.94;6208966;23;20016;-72
2023/03/20 03:36:37;;;;;;;15.15;5.68;;;;;;;6.99;100.00;100957.94;6208490;23;20106;-72
2023/03/20 03:39:15;;;;;;;15.98;8.73;;;;;;;6.99;100.00;100952.59;6203105;23;20021;-72
2023/03/20 03:41:46;;;;;;;9.82;6.10;;;;;;;6.95;100.00;100951.19;6209588;23;20020;-72
2023/03/20 03:44:27;;;;;;;6.90;3.90;;;;;;;6.92;100.00;100952.28;6208926;23;20445;-73
2023/03/20 03:46:59;;;;;;;8.20;5.30;;;;;;;6.89;100.00;100960.53;6181183;23;20025;-72
2023/03/20 03:49:33;;;;;;;13.20;5.15;;;;;;;6.83;100.00;100961.06;6169291;23;20444;-72
2023/03/20 03:52:07;;;;;;;14.00;5.80;;;;;;;6.78;100.00;100965.09;6207574;23;20035;-72
2023/03/20 03:54:41;;;;;;;10.00;5.68;;;;;;;6.84;100.00;100956.56;6209260;23;20024;-72
2023/03/20 03:57:11;;;;;;;10.70;5.82;;;;;;;6.86;100.00;100954.63;6209172;23;20029;-72
2023/03/20 03:59:42;;;;;;;13.77;5.95;;;;;;;6.76;100.00;100954.56;6211085;23;20406;-73
2023/03/20 04:02:09;;;;;;;8.70;5.05;;;;;;;6.78;100.00;100951.78;6212537;23;20026;-72
2023/03/20 04:04:42;;;;;;;10.75;6.35;;;;;;;6.86;100.00;100957.28;6211035;23;20033;-72
2023/03/20 04:07:09;;;;;;;14.63;6.63;;;;;;;6.76;100.00;100959.03;6202830;23;20029;-72
2023/03/20 04:09:36;;;;;;;9.70;6.13;;;;;;;6.76;100.00;100967.88;6212296;23;20524;-73
2023/03/20 04:12:02;;;;;;;15.32;7.10;;;;;;;6.77;100.00;100963.41;6211256;23;20428;-72
2023/03/20 04:14:29;;;;;;;10.70;6.57;;;;;;;6.74;100.00;100963.66;6211682;23;20029;-71
2023/03/20 04:16:56;;;;;;;12.63;7.18;;;;;;;6.84;100.00;100968.09;6211448;23;20036;-72
2023/03/20 04:19:22;;;;;;;9.95;6.25;;;;;;;6.83;100.00;100971.72;6211668;23;20047;-73
2023/03/20 04:21:48;;;;;;;9.35;6.82;;;;;;;6.71;100.00;100973.63;6207698;23;20025;-72
2023/03/20 04:24:15;;;;;;;12.38;7.07;;;;;;;6.67;100.00;100976.69;6212153;23;20039;-71
2023/03/20 04:26:42;;;;;;;13.75;6.47;;;;;;;6.69;100.00;100985.38;6234022;23;20028;-67
2023/03/20 04:29:09;;;;;;;10.75;6.82;;;;;;;6.70;100.00;100985.25;6239690;22;20004;-66
2023/03/20 04:31:35;;;;;;;18.30;7.75;;;;;;;6.64;100.00;100984.94;6236075;22;20028;-69
2023/03/20 04:34:02;;;;;;;10.00;7.15;;;;;;;6.64;100.00;100985.78;6233633;22;20005;-68
2023/03/20 04:36:28;;;;;;;14.18;7.63;;;;;;;6.64;100.00;100983.09;6238330;23;20060;-67
2023/03/20 04:38:55;;;;;;;12.32;7.75;;;;;;;6.33;100.00;100983.97;6239331;23;20005;-68
2023/03/20 04:41:23;;;;;;;14.70;8.63;;;;;;;6.44;100.00;100997.25;6239691;22;20008;-69
2023/03/20 04:43:49;;;;;;;12.73;8.25;;;;;;;6.48;100.00;100985.34;6240474;23;20007;-70
2023/03/20 04:46:15;;;;;;;14.82;7.70;;;;;;;6.54;100.00;100986.66;6240466;22;20052;-67
2023/03/20 04:48:42;;;;;;;13.50;8.38;;;;;;;6.60;100.00;100979.00;6240634;22;20034;-69
2023/03/20 04:51:09;;;;;;;16.50;8.63;;;;;;;6.56;100.00;100987.38;6240077;22;20024;-67
2023/03/20 04:53:36;;;;;;;14.55;8.75;;;;;;;6.52;100.00;100981.44;6240646;22;20020;-68
2023/03/20 04:56:02;;;;;;;11.13;8.18;;;;;;;6.62;100.00;100981.53;6240046;22;20001;-68
2023/03/20 04:58:29;;;;;;;15.27;9.00;;;;;;;6.69;100.00;100980.88;6239022;22;20012;-68
2023/03/20 05:00:55;;;;;;;13.10;9.23;;;;;;;6.68;100.00;100981.88;6239462;22;20016;-68
2023/03/20 05:03:22;;;;;;;15.60;9.25;;;;;;;6.70;100.00;100990.59;6239381;22;20009;-69
2023/03/20 05:05:49;;;;;;;13.85;9.57;;;;;;;6.66;100.00;100989.13;6240522;22;20060;-69
2023/03/20 05:08:16;;;;;;;17.90;10.13;;;;;;;6.42;100.00;100991.19;6239312;22;20041;-69
2023/03/20 05:10:42;;;;;;;17.38;10.60;;;;;;;6.56;100.00;100992.69;6240013;22;20056;-70
2023/03/20 05:13:09;;;;;;;15.85;10.80;;;;;;;6.70;100.00;100985.25;6240183;22;20008;-68
2023/03/20 05:15:36;;;;;;;18.73;11.60;;;;;;;6.69;100.00;100986.22;6239408;22;20061;-69
2023/03/20 05:18:03;;;;;;;16.35;11.10;;;;;;;6.78;100.00;100989.09;6239290;22;20009;-69
2023/03/20 05:20:30;;;;;;;16.20;11.40;;;;;;;6.79;100.00;100993.47;6240010;23;20036;-68
2023/03/20 05:22:56;;;;;;;17.75;11.65;;;;;;;6.74;100.00;100999.19;6238160;22;20021;-70
2023/03/20 05:25:22;;;;;;;20.15;12.60;;;;;;;6.69;100.00;100991.56;6239552;22;20004;-68
2023/03/20 05:27:49;;;;;;;23.50;13.00;;;;;;;6.81;100.00;100997.69;6236046;22;20000;-69
2023/03/20 05:30:16;;;;;;;17.70;12.80;;;;;;;6.80;100.00;100995.13;6240163;23;20036;-66
2023/03/20 05:32:42;;;;;;;19.42;13.20;;;;;;;6.73;100.00;100992.13;6240195;22;20024;-68
2023/03/20 05:35:09;;;;;;;22.52;12.60;;;;;;;6.78;100.00;100997.94;6240394;22;20009;-67
2023/03/20 05:37:37;;;;;;;18.52;12.23;;;;;;;6.85;100.00;100991.13;6238752;22;20020;-69
2023/03/20 05:40:05;;;;;;;26.85;13.93;;;;;;;6.70;100.00;100987.94;6240234;22;20020;-69
2023/03/20 05:42:31;;;;;;;20.95;13.48;;;;;;;6.87;100.00;100990.97;6239174;22;20023;-70
2023/03/20 05:44:58;;;;;;;17.27;13.07;;;;;;;6.84;100.00;100993.91;6216079;22;20024;-70
2023/03/20 05:47:24;;;;;;;20.95;13.95;;;;;;;6.83;100.00;100995.72;6220512;22;20032;-69
2023/03/20 05:49:51;;;;;;;23.67;13.75;;;;;;;6.88;100.00;101000.69;6239109;22;20005;-70
2023/03/20 05:52:18;;;;;;;24.23;13.98;;;;;;;6.73;100.00;100999.28;6233110;22;20040;-68
2023/03/20 05:54:44;;;;;;;24.10;14.48;;;;;;;6.67;100.00;100998.00;6239986;22;20000;-69
2023/03/20 05:57:11;;;;;;;23.30;14.50;;;;;;;6.71;100.00;101002.09;6232110;22;20024;-67
2023/03/20 06:59:50;;;;;;;46.17;28.00;;;;;;;6.20;100.00;101082.66;6136039;23;20427;31
2023/03/20 07:02:16;;;;;;;47.13;29.13;;;;;;;6.37;100.00;101084.84;6179740;23;20245;-69
2023/03/20 07:04:43;;;;;;;46.08;29.63;;;;;;;6.38;100.00;101091.00;6179102;23;20024;-71
2023/03/20 07:07:09;;;;;;;44.70;29.52;;;;;;;6.23;100.00;101093.06;6178550;23;20013;-72
2023/03/20 07:09:36;;;;;;;44.53;29.25;;;;;;;5.85;100.00;101102.28;6179146;23;20093;-70
2023/03/20 07:12:03;;;;;;;46.33;30.17;;;;;;;5.93;100.00;101096.34;6179328;23;20009;-71
2023/03/20 07:14:30;;;;;;;46.25;29.23;;;;;;;5.91;100.00;101098.28;6172034;23;20073;-72
2023/03/20 07:16:56;;;;;;;48.92;29.73;;;;;;;5.94;100.00;101103.34;6179804;23;20017;-71
2023/03/20 07:19:23;;;;;;;49.83;29.75;;;;;;;5.89;100.00;101092.22;6179441;23;20032;-70
2023/03/20 07:21:56;;;;;;;53.75;31.65;;;;;;;5.75;100.00;101093.31;6177909;23;20016;-70
2023/03/20 07:24:22;;;;;;;61.08;32.75;;;;;;;5.96;100.00;101104.09;6179153;23;20032;-69
2023/03/20 07:26:48;;;;;;;58.50;31.25;;;;;;;5.92;100.00;101105.31;6177665;23;20041;-70
2023/03/20 07:31:59;;;;;;;;;;;;;;;5.90;100.00;101101.91;6228264;22;19907;-70
2023/03/20 07:34:26;;;;;;;62.92;34.17;;;;;;;5.99;100.00;101114.50;6237022;22;19907;-69
2023/03/20 07:36:52;;;;;;;65.20;35.78;;;;;;;6.04;100.00;101107.00;6234298;22;20027;-70
2023/03/20 07:39:19;;;;;;;55.60;32.55;;;;;;;6.02;100.00;101106.28;6237991;22;20037;-71
2023/03/20 07:41:46;;;;;;;63.63;33.70;;;;;;;6.10;100.00;101111.00;6235353;22;20076;-71
2023/03/20 07:44:13;;;;;;;62.25;34.53;;;;;;;6.10;100.00;101122.50;6240449;22;20024;-70
2023/03/20 07:46:39;;;;;;;61.55;34.08;;;;;;;6.14;100.00;101118.59;6240732;22;20068;-71
2023/03/20 07:49:06;;;;;;;64.05;33.88;;;;;;;6.17;100.00;101115.69;6240110;22;20008;-71
2023/03/20 07:51:33;;;;;;;55.17;31.83;;;;;;;6.14;100.00;101109.78;6240601;22;20028;-71
2023/03/20 07:53:59;;;;;;;52.58;30.40;;;;;;;6.14;100.00;101115.09;6215017;23;20000;-71
2023/03/20 07:56:26;;;;;;;63.88;29.45;;;;;;;6.23;100.00;101114.38;6241128;22;20000;-69
2023/03/20 08:01:24;;;;;;;58.50;30.40;;;;;;;6.63;100.00;101111.19;6237637;22;20011;-72
2023/03/20 08:03:51;;;;;;;56.47;31.02;;;;;;;6.54;100.00;101120.78;6240014;22;20005;-69
2023/03/20 08:06:18;;;;;;;58.72;30.05;;;;;;;6.56;100.00;101115.31;6239887;22;20027;-71
2023/03/20 08:08:45;;;;;;;49.53;28.17;;;;;;;6.24;100.00;101119.56;6239993;22;20023;-70
2023/03/20 08:11:12;;;;;;;57.90;29.33;;;;;;;6.41;100.00;101122.75;6240530;22;20027;-71
2023/03/20 08:13:38;;;;;;;46.08;27.23;;;;;;;6.46;100.00;101121.41;6240219;22;20017;-71
2023/03/20 08:16:05;;;;;;;57.40;30.33;;;;;;;6.49;100.00;101125.63;6239887;22;20053;-70
2023/03/20 08:23:56;;;;;;;57.58;28.42;;;;;;;6.61;100.00;101147.81;6214671;22;20008;-71
2023/03/20 08:26:24;;;;;;;53.33;28.33;;;;;;;6.63;100.00;101140.50;6240138;22;20012;-71
2023/03/20 08:28:51;;;;;;;54.13;29.25;;;;;;;6.52;100.00;101152.03;6239615;22;20005;-71
2023/03/20 08:33:59;;;;;;;59.33;29.42;;;;;;;6.36;100.00;101151.59;6204541;22;20035;-70
2023/03/20 08:36:26;;;;;;;59.17;26.92;;;;;;;6.36;100.00;101147.09;6234186;22;20009;-69
2023/03/20 08:38:52;;;;;;;47.10;25.63;;;;;;;6.66;100.00;101142.94;6240655;22;20020;-70
2023/03/20 08:41:19;;;;;;;44.42;25.02;;;;;;;6.97;100.00;101141.25;6216863;23;20004;-71
2023/03/20 08:43:46;;;;;;;45.40;23.80;;;;;;;8.06;100.00;101129.41;6241833;22;20048;-71
2023/03/20 08:46:13;;;;;;;44.45;23.75;;;;;;;8.62;100.00;101126.22;6241810;22;20008;-70
2023/03/20 08:48:40;;;;;;;46.88;23.38;;;;;;;9.50;100.00;101133.31;6242098;22;20035;-72
2023/03/20 08:51:07;;;;;;;43.53;22.45;;;;;;;9.88;100.00;101131.53;6241718;22;20028;-72
2023/03/20 08:53:34;;;;;;;45.67;22.20;;;;;;;10.20;100.00;101133.84;6241524;22;20059;-71
2023/03/20 08:56:00;;;;;;;37.90;21.58;;;;;;;10.04;100.00;101131.75;6242211;22;20020;-72
2023/03/20 08:58:28;;;;;;;37.70;20.17;;;;;;;9.45;100.00;101140.94;6241261;22;20012;-70
2023/03/20 09:00:54;;;;;;;38.28;21.63;;;;;;;9.35;100.00;101139.25;6241587;22;20020;-70
2023/03/20 09:03:21;;;;;;;37.10;21.80;;;;;;;9.05;100.00;101144.56;6241795;22;20048;-71
2023/03/20 09:05:51;;;;;;;43.75;21.85;;;;;;;8.95;100.00;101138.34;6241392;22;20004;-71
2023/03/20 09:08:17;;;;;;;36.97;20.83;;;;;;;9.13;100.00;101151.91;6241449;22;20015;-71
2023/03/20 09:10:47;;;;;;;37.05;21.00;;;;;;;9.76;100.00;101146.09;6240575;22;20064;-68
2023/03/20 09:13:17;;;;;;;32.72;19.98;;;;;;;9.51;100.00;101142.22;6241300;22;20001;-70
2023/03/20 09:15:54;;;;;;;28.23;16.98;;;;;;;9.11;100.00;101145.00;6240873;22;20025;-70
2023/03/20 09:18:21;;;;;;;37.35;19.40;;;;;;;8.67;100.00;101139.16;6209004;22;20024;-67
2023/03/20 09:20:48;;;;;;;34.53;19.25;;;;;;;8.65;100.00;101139.31;6241375;22;20016;-70
2023/03/20 09:23:16;;;;;;;35.47;19.05;;;;;;;8.78;100.00;101134.56;6240803;22;20024;-69
2023/03/20 09:25:43;;;;;;;31.98;18.33;;;;;;;8.86;100.00;101136.53;6241207;22;20024;-71
2023/03/20 09:28:10;;;;;;;30.63;17.10;;;;;;;8.70;100.00;101133.53;6240801;22;20039;-71
2023/03/20 09:30:37;;;;;;;28.60;17.08;;;;;;;8.79;100.00;101138.06;6240868;22;20031;-71
2023/03/20 09:33:05;;;;;;;35.22;18.35;;;;;;;8.57;100.00;101134.66;6240925;22;20031;-71
2023/03/20 09:35:32;;;;;;;35.22;18.27;;;;;;;8.56;100.00;101132.09;6240857;22;20001;-71
2023/03/20 09:37:59;;;;;;;35.25;18.88;;;;;;;8.47;100.00;101133.78;6241435;22;20039;-69
2023/03/20 09:40:51;;;;;;;31.80;19.88;;;;;;;8.50;100.00;101130.81;6215205;22;20016;-71
2023/03/20 09:43:42;;;;;;;34.65;19.10;;;;;;;9.29;100.00;101135.31;6234787;22;20054;-69
2023/03/20 09:46:33;;;;;;;33.25;18.17;;;;;;;9.89;100.00;101133.25;6240719;22;20020;-71
2023/03/20 09:49:16;;;;;;;40.17;18.95;;;;;;;10.27;100.00;101126.03;6240524;22;20004;-69
2023/03/20 09:51:56;;;;;;;25.23;16.65;;;;;;;9.74;100.00;101135.50;6241051;22;20011;-69
2023/03/20 09:54:31;;;;;;;31.85;17.23;;;;;;;9.72;100.00;101139.34;6241497;22;20009;-68
2023/03/20 09:57:34;;;;;;;30.92;16.95;;;;;;;9.27;100.00;101137.28;6240489;22;20005;-68
2023/03/20 10:00:06;;;;;;;27.80;15.80;;;;;;;8.89;100.00;101141.59;6242689;22;20009;-70
2023/03/20 10:02:45;;;;;;;35.38;19.20;;;;;;;8.78;100.00;101136.34;6241056;22;20000;-70
2023/03/20 10:05:42;;;;;;;31.67;17.08;;;;;;;8.52;100.00;101142.22;6241138;22;20005;-71
2023/03/20 10:08:15;;;;;;;30.48;15.90;;;;;;;8.45;100.00;101143.75;6226871;22;20068;-71
2023/03/20 10:11:00;;;;;;;32.42;17.20;;;;;;;8.18;100.00;101143.50;6237924;22;20024;-71
2023/03/20 10:13:36;;;;;;;30.30;16.15;;;;;;;8.20;100.00;101153.09;6239346;22;20017;-70
2023/03/20 10:16:14;;;;;;;31.25;16.70;;;;;;;8.28;100.00;101149.75;6238392;22;20008;-71
2023/03/20 10:18:50;;;;;;;29.30;14.82;;;;;;;8.28;100.00;101147.06;6239159;22;20031;-72
2023/03/20 10:21:25;;;;;;;29.58;14.82;;;;;;;8.32;100.00;101143.97;6238259;22;20008;-70
2023/03/20 10:24:07;;;;;;;28.17;14.85;;;;;;;8.13;100.00;101146.59;6239149;22;20020;-71
2023/03/20 10:26:35;;;;;;;28.65;15.18;;;;;;;8.10;100.00;101146.88;6239090;22;20069;-70
2023/03/20 10:29:25;;;;;;;25.33;13.60;;;;;;;8.17;100.00;101137.31;6237762;22;20080;-68
2023/03/20 10:32:18;;;;;;;27.60;14.65;;;;;;;7.82;100.00;101148.38;6222692;22;20115;-70
2023/03/20 10:35:27;;;;;;;21.77;13.07;;;;;;;7.96;100.00;101137.38;6238608;22;20007;-69
2023/03/20 10:38:13;;;;;;;23.55;12.95;;;;;;;7.89;100.00;101144.22;6238176;22;20015;-70
2023/03/20 10:40:41;;;;;;;22.33;12.32;;;;;;;7.73;100.00;101138.47;6237768;22;20036;-69
2023/03/20 10:43:20;;;;;;;25.63;12.60;;;;;;;7.89;100.00;101139.72;6212180;23;20016;-69
2023/03/20 10:45:52;;;;;;;24.90;12.02;;;;;;;8.01;100.00;101131.63;6221975;22;20013;-72
2023/03/20 10:48:27;;;;;;;19.98;11.50;;;;;;;7.99;100.00;101136.28;6186616;23;20027;-72
2023/03/20 10:50:57;;;;;;;19.45;10.70;;;;;;;8.17;100.00;101129.31;6195576;23;20020;-72
2023/03/20 10:53:33;;;;;;;19.60;10.82;;;;;;;8.44;100.00;101120.69;6210351;23;20020;-72
2023/03/20 10:56:05;;;;;;;18.00;10.13;;;;;;;8.65;100.00;101131.28;6210794;23;20047;-72
2023/03/20 10:58:38;;;;;;;22.20;11.65;;;;;;;8.54;100.00;101129.56;6209335;23;20023;-71
2023/03/20 11:01:05;;;;;;;15.77;9.68;;;;;;;8.37;100.00;101132.91;6209689;23;20028;-72
2023/03/20 11:03:35;;;;;;;19.25;9.75;;;;;;;8.45;100.00;101138.41;6200239;23;20067;-71
2023/03/20 11:06:06;;;;;;;21.42;9.80;;;;;;;8.36;100.00;101136.53;6209989;23;20120;-71
2023/03/20 11:08:39;;;;;;;18.95;9.73;;;;;;;8.46;100.00;101126.72;6208669;23;20079;-71
2023/03/20 11:11:07;;;;;;;22.38;10.02;;;;;;;8.20;100.00;101126.38;6198486;23;20040;-72
2023/03/20 11:13:43;;;;;;;19.60;10.15;;;;;;;8.19;100.00;101123.81;6210121;23;20346;-71
2023/03/20 11:16:23;;;;;;;18.35;9.20;;;;;;;8.34;100.00;101125.16;6210121;23;20070;-70
2023/03/20 11:18:51;;;;;;;13.98;8.68;;;;;;;8.12;100.00;101113.69;6209940;23;20020;-71
2023/03/20 11:21:23;;;;;;;19.38;10.20;;;;;;;8.02;100.00;101117.28;6208271;23;20099;-71
2023/03/20 11:23:51;;;;;;;16.73;9.13;;;;;;;8.16;100.00;101116.94;6195573;23;20095;-72
2023/03/20 11:26:34;;;;;;;20.23;9.80;;;;;;;8.14;100.00;101119.72;6204283;23;20615;-73
2023/03/20 11:29:04;;;;;;;19.38;9.65;;;;;;;8.28;100.00;101123.00;6210273;23;20027;-75
2023/03/20 11:31:39;;;;;;;15.63;9.80;;;;;;;8.49;100.00;101131.81;6209108;23;20020;-74
2023/03/20 11:34:06;;;;;;;16.48;9.25;;;;;;;8.56;100.00;101122.25;6207934;23;20020;-75
2023/03/20 11:36:35;;;;;;;18.13;10.10;;;;;;;8.56;100.00;101116.91;6210407;23;20016;-74
2023/03/20 11:39:14;;;;;;;19.50;9.98;;;;;;;8.50;100.00;101117.44;6208848;23;20021;-74
2023/03/20 11:41:44;;;;;;;19.58;9.65;;;;;;;8.57;100.00;101118.63;6210202;23;20022;-74
2023/03/20 11:44:40;;;;;;;16.10;9.95;;;;;;;8.41;100.00;101110.25;6194730;23;20009;-73
2023/03/20 11:47:21;;;;;;;17.27;8.45;;;;;;;8.54;100.00;101113.53;6172549;23;20020;-73
2023/03/20 11:49:59;;;;;;;16.27;9.95;;;;;;;8.35;100.00;101105.44;6209685;23;20528;-74
2023/03/20 11:52:32;;;;;;;21.02;10.80;;;;;;;8.12;100.00;101096.78;6208837;23;20119;-74
2023/03/20 11:55:03;;;;;;;19.58;10.68;;;;;;;8.10;100.00;101104.94;6210838;23;20017;-74
2023/03/20 11:57:42;;;;;;;18.27;9.70;;;;;;;8.35;100.00;101100.09;6210419;23;20345;-75
2023/03/20 12:00:23;;;;;;;19.20;10.20;;;;;;;8.50;100.00;101101.41;6198852;23;20609;-74
2023/03/20 12:02:49;;;;;;;17.85;9.38;;;;;;;8.45;100.00;101103.66;6210264;23;20031;-74
2023/03/20 12:05:38;;;;;;;20.00;9.88;;;;;;;8.30;100.00;101097.00;6209649;23;20041;-75
2023/03/20 12:08:11;;;;;;;18.25;9.32;;;;;;;8.43;100.00;101094.91;6207982;23;20047;-74
2023/03/20 12:10:42;;;;;;;18.60;10.30;;;;;;;8.40;100.00;101092.53;6209649;23;20100;-74
2023/03/20 12:13:27;;;;;;;18.05;9.30;;;;;;;8.43;100.00;101089.56;6210038;23;20147;-75
2023/03/20 12:16:01;;;;;;;15.52;8.93;;;;;;;8.86;100.00;101085.69;6210610;23;20015;-75
2023/03/20 12:18:37;;;;;;;22.08;9.32;;;;;;;9.16;100.00;101075.81;6212418;23;20024;-73
2023/03/20 12:21:09;;;;;;;22.90;9.30;;;;;;;9.25;100.00;101083.88;6211529;23;20021;-73
2023/03/20 12:23:44;;;;;;;15.77;9.10;;;;;;;9.17;100.00;101074.84;6211834;23;20100;-74
2023/03/20 12:26:35;;;;;;;19.05;10.15;;;;;;;8.99;100.00;101080.03;6211555;23;20040;-74
2023/03/20 12:29:16;;;;;;;17.37;9.40;;;;;;;8.96;100.00;101064.31;6211165;23;20024;-73
2023/03/20 12:31:49;;;;;;;22.63;10.32;;;;;;;9.00;100.00;101065.69;6211313;23;20024;-74
2023/03/20 12:34:21;;;;;;;19.55;10.30;;;;;;;8.89;100.00;101072.03;6209527;23;20299;-74
2023/03/20 12:36:50;;;;;;;18.05;10.02;;;;;;;8.63;100.00;101063.69;6210588;23;20353;-73
2023/03/20 12:39:22;;;;;;;19.48;9.90;;;;;;;8.93;100.00;101059.22;6212485;23;20024;-74
2023/03/20 12:42:25;;;;;;;23.05;10.30;;;;;;;8.87;100.00;101057.09;6202456;23;20067;-75
2023/03/20 12:45:09;;;;;;;15.77;9.73;;;;;;;9.05;100.00;101058.91;6210597;23;20027;-74
2023/03/20 12:47:44;;;;;;;19.63;10.80;;;;;;;8.93;100.00;101053.88;6211036;23;20027;-74
2023/03/20 12:50:31;;;;;;;19.27;10.77;;;;;;;9.12;100.00;101063.72;6211346;23;20038;-73
2023/03/20 12:53:37;;;;;;;19.17;10.57;;;;;;;9.08;100.00;101053.28;6211187;23;20377;-76
2023/03/20 12:56:12;;;;;;;16.17;10.77;;;;;;;9.01;100.00;101045.97;6210215;23;20044;-73
2023/03/20 12:58:52;;;;;;;18.25;11.00;;;;;;;9.23;100.00;101053.72;6210248;23;20095;-74
2023/03/20 13:01:38;;;;;;;17.27;10.60;;;;;;;9.24;100.00;101051.91;6211335;23;20028;-75
2023/03/20 13:04:43;;;;;;;21.42;11.43;;;;;;;8.76;100.00;101052.75;6212298;23;20020;-74
2023/03/20 13:07:34;;;;;;;23.65;12.32;;;;;;;8.54;100.00;101044.00;6203911;23;20104;-74
2023/03/20 13:10:19;;;;;;;22.85;11.60;;;;;;;8.61;100.00;101041.63;6212505;23;20020;-74
2023/03/20 13:13:04;;;;;;;27.42;13.50;;;;;;;8.51;100.00;101051.47;6209936;23;20088;-75
2023/03/20 13:15:36;;;;;;;24.23;12.13;;;;;;;8.63;100.00;101044.97;6212205;23;20047;-75
2023/03/20 13:18:19;;;;;;;21.67;11.93;;;;;;;8.72;100.00;101038.81;6211082;23;20031;-75
2023/03/20 13:20:53;;;;;;;23.50;12.63;;;;;;;8.77;100.00;101038.38;6211486;23;20020;-72
2023/03/20 13:23:32;;;;;;;20.10;11.60;;;;;;;8.81;100.00;101037.09;6209890;23;20039;-72
2023/03/20 13:26:26;;;;;;;24.00;12.57;;;;;;;8.77;100.00;101038.38;6237209;22;20015;-68
2023/03/20 13:28:57;;;;;;;25.35;13.85;;;;;;;8.99;100.00;101043.44;6239043;22;20012;-70
2023/03/20 13:31:42;;;;;;;23.17;13.05;;;;;;;8.83;100.00;101032.47;6239562;22;20040;-71
2023/03/20 13:34:30;;;;;;;26.17;13.07;;;;;;;8.90;100.00;101030.91;6237820;22;20009;-71
2023/03/20 13:37:22;;;;;;;26.15;12.25;;;;;;;9.09;100.00;101027.34;6239025;22;20133;-71
2023/03/20 13:40:04;;;;;;;21.45;12.98;;;;;;;9.34;100.00;101025.97;6239710;22;20025;-71
2023/03/20 13:42:40;;;;;;;26.33;12.10;;;;;;;9.31;100.00;101028.91;6240396;22;20020;-71
2023/03/20 13:45:26;;;;;;;20.73;12.38;;;;;;;9.27;100.00;101035.56;6238437;22;20238;-72
2023/03/20 13:48:02;;;;;;;23.92;12.40;;;;;;;9.43;100.00;101029.59;6238043;22;20052;-72
2023/03/20 13:50:42;;;;;;;;;;;;;;;9.51;100.00;101025.19;6239533;22;20044;-71
2023/03/20 13:53:24;;;;;;;20.02;12.25;;;;;;;9.58;100.00;101022.78;6238217;22;19906;-71
2023/03/20 13:56:20;;;;;;;24.55;12.73;;;;;;;9.39;100.00;101012.97;6231639;22;20024;-72
2023/03/20 13:58:50;;;;;;;22.20;12.50;;;;;;;9.25;100.00;101029.50;6239483;22;20024;-70
2023/03/20 14:01:46;;;;;;;23.70;12.93;;;;;;;9.09;100.00;101022.88;6237514;22;20057;-70
2023/03/20 14:04:17;;;;;;;25.13;13.93;;;;;;;9.07;100.00;101027.50;6239682;22;20025;-70
2023/03/20 14:06:51;;;;;;;28.45;13.52;;;;;;;8.92;100.00;101031.63;6238925;22;20012;-71
2023/03/20 14:09:36;;;;;;;25.20;13.65;;;;;;;8.80;100.00;101027.41;6238487;22;20005;-71
2023/03/20 14:12:09;;;;;;;27.63;14.20;;;;;;;8.72;100.00;101019.25;6239531;22;20004;-71
2023/03/20 14:14:48;;;;;;;26.10;13.70;;;;;;;8.75;100.00;101027.81;6237134;22;20032;-71
2023/03/20 14:17:26;;;;;;;25.00;13.55;;;;;;;8.50;100.00;101023.84;6238766;22;20020;-71
2023/03/20 14:19:54;;;;;;;22.65;13.90;;;;;;;8.62;100.00;101024.59;6239692;22;20024;-71